Terminal Aerodrome Forecast
Issued by NWS El Paso, TX

Current Version | Previous Version | Text Only | Print | Product List | Glossary On
Versions: 1 2 3 4 5 6 7 8 9 10 11 12 13
000
FTUS44 KEPZ 291100
TAFELP
TAF
KELP 291131Z 2912/3012 12008KT P6SM FEW250
     FM291500 33008KT P6SM FEW250
     FM292100 24007KT P6SM SCT250
     FM300500 06005KT P6SM BKN250=

USA.gov is the U.S. government's official web portal to all federal, state and local government web resources and services.